createdAt,value
2022-10-10T00:01:36.214Z,76.10
2022-10-10T00:04:05.686Z,76.00
2022-10-10T00:06:33.787Z,75.90
2022-10-10T00:09:03.572Z,76.00
2022-10-10T00:11:31.324Z,75.90
2022-10-10T00:13:59.289Z,75.90
2022-10-10T00:16:26.810Z,76.00
2022-10-10T00:18:55.636Z,76.00
2022-10-10T00:21:22.894Z,76.40
2022-10-10T00:23:50.178Z,76.40
2022-10-10T00:26:19.407Z,76.10
2022-10-10T00:28:48.097Z,76.10
2022-10-10T00:31:15.700Z,76.30
2022-10-10T00:33:43.166Z,76.10
2022-10-10T00:36:11.414Z,76.30
2022-10-10T00:38:38.714Z,76.50
2022-10-10T00:41:06.481Z,76.50
2022-10-10T00:43:34.924Z,76.40
2022-10-10T00:46:02.487Z,76.40
2022-10-10T00:48:45.102Z,76.50
2022-10-10T00:51:18.606Z,76.60
2022-10-10T00:54:02.117Z,77.20
2022-10-10T00:56:52.531Z,76.60
2022-10-10T00:59:21.916Z,76.70
2022-10-10T01:01:49.235Z,76.50
2022-10-10T01:04:45.467Z,76.30
2022-10-10T01:07:28.107Z,76.50
2022-10-10T01:10:10.489Z,76.40
2022-10-10T01:13:16.129Z,76.50
2022-10-10T01:16:07.394Z,76.60
2022-10-10T01:19:30.793Z,76.70
2022-10-10T01:22:50.586Z,76.80
2022-10-10T01:26:09.958Z,76.90
2022-10-10T01:29:01.705Z,77.00
2022-10-10T01:31:32.613Z,76.80
2022-10-10T01:34:40.064Z,77.20
2022-10-10T01:37:29.135Z,77.30
2022-10-10T01:40:52.017Z,77.50
2022-10-10T01:43:19.893Z,77.50
2022-10-10T01:45:53.073Z,77.50
2022-10-10T01:48:31.502Z,77.80
2022-10-10T01:52:17.009Z,77.70
2022-10-10T01:55:52.215Z,77.70
2022-10-10T01:59:10.492Z,78.60
2022-10-10T02:02:12.966Z,79.80
2022-10-10T02:05:27.994Z,79.90
2022-10-10T02:08:36.261Z,79.80
2022-10-10T02:11:12.015Z,80.10
2022-10-10T02:13:58.249Z,80.60
2022-10-10T02:16:35.324Z,79.40
2022-10-10T02:19:08.511Z,79.50
2022-10-10T02:21:37.354Z,80.10
2022-10-10T02:24:10.220Z,79.80
2022-10-10T02:26:39.351Z,80.00
2022-10-10T02:29:19.640Z,79.70
2022-10-10T02:32:14.329Z,79.50
2022-10-10T02:34:51.449Z,79.60
2022-10-10T02:37:22.557Z,79.60
2022-10-10T02:39:59.544Z,79.60
2022-10-10T02:42:27.803Z,79.60
2022-10-10T02:44:56.900Z,79.40
2022-10-10T02:47:24.505Z,79.50
2022-10-10T02:49:52.067Z,79.60
2022-10-10T02:52:19.513Z,79.40
2022-10-10T02:54:46.889Z,79.70
2022-10-10T02:57:14.385Z,79.50
2022-10-10T02:59:41.889Z,79.50
2022-10-10T03:02:09.212Z,79.70
2022-10-10T03:04:37.072Z,79.50
2022-10-10T03:07:05.411Z,79.60
2022-10-10T03:09:33.501Z,79.50
2022-10-10T03:12:00.776Z,79.50
2022-10-10T03:14:28.192Z,79.60
2022-10-10T03:16:55.566Z,79.80
2022-10-10T03:19:23.757Z,79.60
2022-10-10T03:21:51.036Z,79.70
2022-10-10T03:24:18.297Z,79.60
2022-10-10T03:26:45.602Z,79.70
2022-10-10T03:29:12.852Z,79.90
2022-10-10T03:31:40.129Z,79.60
2022-10-10T03:34:07.404Z,79.70
2022-10-10T03:36:34.732Z,79.80
2022-10-10T03:39:02.335Z,79.80
2022-10-10T03:41:29.665Z,79.80
2022-10-10T03:43:57.611Z,79.60
2022-10-10T03:46:24.889Z,79.60
2022-10-10T03:48:52.224Z,79.50
2022-10-10T03:51:19.651Z,79.50
2022-10-10T03:53:46.941Z,79.60
2022-10-10T03:56:15.010Z,79.70
2022-10-10T03:58:42.317Z,79.70
2022-10-10T04:01:09.676Z,79.70
2022-10-10T04:03:37.126Z,79.70
2022-10-10T04:06:04.604Z,79.70
2022-10-10T04:08:32.496Z,79.80
2022-10-10T04:10:59.768Z,80.00
2022-10-10T04:13:27.578Z,79.90
2022-10-10T04:15:57.100Z,80.00
2022-10-10T04:18:25.374Z,79.90
2022-10-10T04:20:52.661Z,80.30
2022-10-10T04:23:20.236Z,80.20
2022-10-10T04:25:51.603Z,80.10
2022-10-10T04:28:19.530Z,80.20
2022-10-10T04:30:47.213Z,80.20
2022-10-10T04:33:14.508Z,80.00
2022-10-10T04:35:41.826Z,79.80
2022-10-10T04:38:09.097Z,80.00
2022-10-10T04:40:38.024Z,79.90
2022-10-10T04:43:05.288Z,79.90
2022-10-10T04:45:37.217Z,79.90
2022-10-10T04:48:06.265Z,79.80
2022-10-10T04:50:33.623Z,79.90
2022-10-10T04:53:00.921Z,79.90
2022-10-10T04:55:28.262Z,79.80
2022-10-10T04:57:55.552Z,79.70
2022-10-10T05:00:22.853Z,79.70
2022-10-10T05:02:50.548Z,79.90
2022-10-10T05:05:18.063Z,79.80
2022-10-10T05:07:45.329Z,79.90
2022-10-10T05:10:13.398Z,80.00
2022-10-10T05:12:40.774Z,80.30
2022-10-10T05:15:08.838Z,80.20
2022-10-10T05:17:36.116Z,80.40
2022-10-10T05:20:04.199Z,80.30
2022-10-10T05:22:31.622Z,80.20
2022-10-10T05:24:59.898Z,80.10
2022-10-10T05:27:27.933Z,80.20
2022-10-10T05:29:55.828Z,80.30
2022-10-10T05:32:23.978Z,80.50
2022-10-10T05:34:51.265Z,81.10
2022-10-10T05:37:18.525Z,81.00
2022-10-10T05:39:45.800Z,80.90
2022-10-10T05:42:14.124Z,81.30
2022-10-10T05:44:41.502Z,81.80
2022-10-10T05:47:09.049Z,81.90
2022-10-10T05:49:36.501Z,82.40
2022-10-10T05:52:04.145Z,82.30
2022-10-10T05:54:33.027Z,82.20
2022-10-10T05:57:00.348Z,82.50
2022-10-10T05:59:30.069Z,82.70
2022-10-10T06:01:57.725Z,82.70
2022-10-10T06:04:25.155Z,82.70
2022-10-10T06:06:52.420Z,82.60
2022-10-10T06:09:19.689Z,82.80
2022-10-10T06:11:46.992Z,83.10
2022-10-10T06:14:14.277Z,83.80
2022-10-10T06:16:43.549Z,83.90
2022-10-10T06:19:14.806Z,83.70
2022-10-10T06:21:42.471Z,83.70
2022-10-10T06:24:11.674Z,83.60
2022-10-10T06:26:38.940Z,83.70
2022-10-10T06:29:07.341Z,84.10
2022-10-10T06:31:39.350Z,84.70
2022-10-10T06:34:07.557Z,84.10
2022-10-10T06:36:35.262Z,84.10
2022-10-10T06:39:02.651Z,84.00
2022-10-10T06:41:30.028Z,83.90
2022-10-10T06:43:58.611Z,84.20
2022-10-10T06:46:26.124Z,84.60
2022-10-10T06:48:53.433Z,84.40
2022-10-10T06:51:20.745Z,84.20
2022-10-10T06:53:48.072Z,84.20
2022-10-10T06:56:26.371Z,84.20
2022-10-10T06:58:55.771Z,83.70
2022-10-10T07:01:25.843Z,84.10
2022-10-10T07:03:53.617Z,84.20
2022-10-10T07:06:21.205Z,84.40
2022-10-10T07:08:48.578Z,84.40
2022-10-10T07:11:15.946Z,83.80
2022-10-10T07:13:44.129Z,84.70
2022-10-10T07:16:11.630Z,84.60
2022-10-10T07:18:39.063Z,84.70
2022-10-10T07:21:07.395Z,84.20
2022-10-10T07:23:36.492Z,84.20
2022-10-10T07:26:15.523Z,84.50
2022-10-10T07:28:43.029Z,84.10
2022-10-10T07:31:11.725Z,84.20
2022-10-10T07:33:50.109Z,84.30
2022-10-10T07:36:18.744Z,84.60
2022-10-10T07:38:49.828Z,84.90
2022-10-10T07:41:17.512Z,85.10
2022-10-10T07:43:44.808Z,85.00
2022-10-10T07:46:20.325Z,84.90
2022-10-10T07:48:49.246Z,85.00
2022-10-10T07:51:17.530Z,84.70
2022-10-10T07:53:44.801Z,84.80
2022-10-10T07:56:12.230Z,84.60
2022-10-10T07:58:39.618Z,85.00
2022-10-10T08:01:11.995Z,84.80
2022-10-10T08:03:40.685Z,84.90
2022-10-10T08:06:15.234Z,84.70
2022-10-10T08:08:50.795Z,84.80
2022-10-10T08:11:22.017Z,84.90
2022-10-10T08:13:50.242Z,85.00
2022-10-10T08:16:18.198Z,85.00
2022-10-10T08:18:45.583Z,84.70
2022-10-10T08:21:15.538Z,85.70
2022-10-10T08:23:43.185Z,85.00
2022-10-10T08:26:16.084Z,84.60
2022-10-10T08:28:44.336Z,84.60
2022-10-10T08:31:17.683Z,85.30
2022-10-10T08:33:47.513Z,85.30
2022-10-10T08:36:23.330Z,84.40
2022-10-10T08:38:53.414Z,84.10
2022-10-10T08:41:55.600Z,84.50
2022-10-10T08:45:04.482Z,84.50
2022-10-10T08:47:54.047Z,83.40
2022-10-10T08:50:51.697Z,83.00
2022-10-10T08:53:47.688Z,83.00
2022-10-10T08:56:25.896Z,82.60
2022-10-10T08:59:04.893Z,82.20
2022-10-10T09:02:17.820Z,80.90
2022-10-10T09:04:26.121Z,80.50
2022-10-10T09:07:45.435Z,81.00
2022-10-10T09:10:52.385Z,79.90
2022-10-10T09:13:35.941Z,79.90
2022-10-10T09:16:30.440Z,79.00
2022-10-10T09:19:40.884Z,78.70
2022-10-10T09:22:27.645Z,79.60
2022-10-10T09:25:19.248Z,78.20
2022-10-10T09:28:16.740Z,77.80
2022-10-10T09:30:57.207Z,76.70
2022-10-10T09:34:22.105Z,76.50
2022-10-10T09:36:49.997Z,75.50
2022-10-10T09:40:20.415Z,75.10
2022-10-10T09:42:47.808Z,73.30
2022-10-10T09:45:39.154Z,73.20
2022-10-10T09:48:10.863Z,73.10
2022-10-10T09:50:43.137Z,71.10
2022-10-10T09:53:17.729Z,69.90
2022-10-10T09:55:47.938Z,69.80
2022-10-10T09:58:50.720Z,68.40
2022-10-10T10:01:32.424Z,68.60
2022-10-10T10:04:28.804Z,67.00
2022-10-10T10:07:34.077Z,66.00
2022-10-10T10:10:20.647Z,65.30
2022-10-10T10:12:48.389Z,65.20
2022-10-10T10:15:32.163Z,63.70
2022-10-10T10:18:17.169Z,63.10
2022-10-10T10:21:02.212Z,62.60
2022-10-10T10:24:29.498Z,62.90
2022-10-10T10:26:57.377Z,62.10
2022-10-10T10:29:34.284Z,61.20
2022-10-10T10:33:00.947Z,60.80
2022-10-10T10:35:51.548Z,59.10
2022-10-10T10:38:48.449Z,60.00
2022-10-10T10:42:35.456Z,59.50
2022-10-10T10:45:39.994Z,58.40
2022-10-10T10:48:29.612Z,58.60
2022-10-10T10:52:01.473Z,56.00
2022-10-10T10:55:17.491Z,56.60
2022-10-10T11:02:07.605Z,56.40
2022-10-10T11:05:31.021Z,56.30
2022-10-10T11:09:03.392Z,55.40
2022-10-10T11:12:06.824Z,54.20
2022-10-10T11:15:14.561Z,54.00
2022-10-10T11:18:01.617Z,53.30
2022-10-10T11:20:46.396Z,54.40
2022-10-10T11:23:43.017Z,54.00
2022-10-10T11:26:46.316Z,53.40
2022-10-10T11:29:34.301Z,51.00
2022-10-10T11:32:43.777Z,51.60
2022-10-10T11:35:46.600Z,51.90
2022-10-10T11:38:57.477Z,52.00
2022-10-10T11:41:54.796Z,50.20
2022-10-10T11:44:47.901Z,51.50
2022-10-10T11:47:42.357Z,51.80
2022-10-10T11:50:26.193Z,49.20
2022-10-10T11:53:38.083Z,48.20
2022-10-10T11:56:13.498Z,49.00
2022-10-10T11:58:58.669Z,49.10
2022-10-10T12:01:45.250Z,48.20
2022-10-10T12:04:12.656Z,47.50
2022-10-10T12:07:11.585Z,45.80
2022-10-10T12:09:49.688Z,47.50
2022-10-10T12:12:44.556Z,45.40
2022-10-10T12:15:41.972Z,47.40
2022-10-10T12:18:58.914Z,47.60
2022-10-10T12:21:29.259Z,45.50
2022-10-10T12:24:14.233Z,44.40
2022-10-10T12:26:56.027Z,44.20
2022-10-10T12:29:56.559Z,44.30
2022-10-10T12:32:39.952Z,44.30
2022-10-10T12:35:31.704Z,44.90
2022-10-10T12:38:27.782Z,44.10
2022-10-10T12:40:59.581Z,44.10
2022-10-10T12:44:11.202Z,44.70
2022-10-10T12:46:38.586Z,43.70
2022-10-10T12:49:23.985Z,44.80
2022-10-10T12:52:20.333Z,43.50
2022-10-10T12:54:49.382Z,44.20
2022-10-10T12:57:44.069Z,43.90
2022-10-10T13:00:24.442Z,43.70
2022-10-10T13:03:04.298Z,45.30
2022-10-10T13:05:40.191Z,44.40
2022-10-10T13:08:25.024Z,44.20
2022-10-10T13:11:12.624Z,43.80
2022-10-10T13:13:57.084Z,44.10
2022-10-10T13:16:33.761Z,44.00
2022-10-10T13:19:01.776Z,44.90
2022-10-10T13:21:34.980Z,44.20
2022-10-10T13:24:07.007Z,44.80
2022-10-10T13:26:50.309Z,44.80
2022-10-10T13:29:36.160Z,45.40
2022-10-10T13:32:26.989Z,44.70
2022-10-10T13:35:04.080Z,46.60
2022-10-10T13:37:32.335Z,45.80
2022-10-10T13:40:00.916Z,45.10
2022-10-10T13:42:40.496Z,46.20
2022-10-10T13:45:45.696Z,46.30
2022-10-10T13:48:50.785Z,46.90
2022-10-10T13:51:18.141Z,46.70
2022-10-10T13:53:54.422Z,45.10
2022-10-10T13:56:41.540Z,46.70
2022-10-10T13:59:13.242Z,46.90
2022-10-10T14:01:54.739Z,45.60
2022-10-10T14:04:59.574Z,45.90
2022-10-10T14:07:29.760Z,46.00
2022-10-10T14:10:10.057Z,46.50
2022-10-10T14:13:00.896Z,45.80
2022-10-10T14:15:40.660Z,47.00
2022-10-10T14:18:26.305Z,46.00
2022-10-10T14:20:53.926Z,46.20
2022-10-10T14:23:21.876Z,46.50
2022-10-10T14:25:50.081Z,47.60
2022-10-10T14:28:27.504Z,47.70
2022-10-10T14:30:55.573Z,47.90
2022-10-10T14:33:23.778Z,47.10
2022-10-10T14:35:54.553Z,47.10
2022-10-10T14:38:22.046Z,47.70
2022-10-10T14:40:51.141Z,47.50
2022-10-10T14:43:23.552Z,47.50
2022-10-10T14:45:53.492Z,49.00
2022-10-10T14:48:21.596Z,49.10
2022-10-10T14:50:51.161Z,47.30
2022-10-10T14:53:19.444Z,47.40
2022-10-10T14:55:46.902Z,47.90
2022-10-10T14:58:22.671Z,47.60
2022-10-10T15:00:52.887Z,48.50
2022-10-10T15:03:20.586Z,47.30
2022-10-10T15:05:49.986Z,47.70
2022-10-10T15:08:19.514Z,47.50
2022-10-10T15:10:48.097Z,47.40
2022-10-10T15:13:17.609Z,46.90
2022-10-10T15:15:47.075Z,47.00
2022-10-10T15:18:40.946Z,47.60
2022-10-10T15:21:11.355Z,46.90
2022-10-10T15:23:39.530Z,47.80
2022-10-10T15:26:07.675Z,48.30
2022-10-10T15:28:35.215Z,49.50
2022-10-10T15:31:03.193Z,49.30
2022-10-10T15:33:30.761Z,49.80
2022-10-10T15:36:09.644Z,49.50
2022-10-10T15:38:38.850Z,49.00
2022-10-10T15:41:10.048Z,48.90
2022-10-10T15:43:54.535Z,49.30
2022-10-10T15:46:26.595Z,49.50
2022-10-10T15:49:02.110Z,49.80
2022-10-10T15:51:31.260Z,49.20
2022-10-10T15:54:00.433Z,48.20
2022-10-10T15:56:30.543Z,47.90
2022-10-10T15:59:02.381Z,47.60
2022-10-10T16:01:31.392Z,47.50
2022-10-10T16:03:59.060Z,47.60
2022-10-10T16:06:26.847Z,47.30
2022-10-10T16:09:09.984Z,47.80
2022-10-10T16:11:42.213Z,48.90
2022-10-10T16:14:10.892Z,49.30
2022-10-10T16:16:38.545Z,49.50
2022-10-10T16:19:06.334Z,49.70
2022-10-10T16:21:33.792Z,49.20
2022-10-10T16:24:01.488Z,48.60
2022-10-10T16:26:33.081Z,48.90
2022-10-10T16:29:02.297Z,49.20
2022-10-10T16:31:29.885Z,49.40
2022-10-10T16:34:00.299Z,50.10
2022-10-10T16:36:33.560Z,50.20
2022-10-10T16:39:00.987Z,50.60
2022-10-10T16:41:48.744Z,51.40
2022-10-10T16:44:17.935Z,50.50
2022-10-10T16:46:45.496Z,51.70
2022-10-10T16:49:16.675Z,51.80
2022-10-10T16:51:44.174Z,52.50
2022-10-10T16:54:11.636Z,53.10
2022-10-10T16:56:38.936Z,52.60
2022-10-10T16:59:10.933Z,52.80
2022-10-10T17:01:38.311Z,52.80
2022-10-10T17:04:05.641Z,52.50
2022-10-10T17:06:37.874Z,52.30
2022-10-10T17:09:08.220Z,52.30
2022-10-10T17:11:36.152Z,52.80
2022-10-10T17:14:04.081Z,52.70
2022-10-10T17:17:10.033Z,53.40
2022-10-10T17:19:21.020Z,54.00
2022-10-10T17:21:48.325Z,54.50
2022-10-10T17:24:16.786Z,55.10
2022-10-10T17:26:45.909Z,55.90
2022-10-10T17:29:13.939Z,56.60
2022-10-10T17:31:41.475Z,57.30
2022-10-10T17:34:08.881Z,58.50
2022-10-10T17:36:36.169Z,59.10
2022-10-10T17:39:03.827Z,59.50
2022-10-10T17:41:33.207Z,60.00
2022-10-10T17:44:00.815Z,60.10
2022-10-10T17:46:36.239Z,60.10
2022-10-10T17:49:11.762Z,60.40
2022-10-10T17:51:41.273Z,60.50
2022-10-10T17:54:10.089Z,60.80
2022-10-10T17:56:38.446Z,61.30
2022-10-10T17:59:06.750Z,61.80
2022-10-10T18:01:39.842Z,61.70
2022-10-10T18:04:07.770Z,62.30
2022-10-10T18:06:38.084Z,62.70
2022-10-10T18:09:05.904Z,62.70
2022-10-10T18:11:33.347Z,63.40
2022-10-10T18:14:01.071Z,63.80
2022-10-10T18:16:34.892Z,64.50
2022-10-10T18:19:07.412Z,64.80
2022-10-10T18:21:38.951Z,65.30
2022-10-10T18:24:06.946Z,65.30
2022-10-10T18:26:36.081Z,65.60
2022-10-10T18:29:04.636Z,63.20
2022-10-10T18:31:35.676Z,61.90
2022-10-10T18:34:06.922Z,62.60
2022-10-10T18:36:39.525Z,62.60
2022-10-10T18:39:13.730Z,62.90
2022-10-10T18:41:41.371Z,62.90
2022-10-10T18:44:16.836Z,62.90
2022-10-10T18:46:46.223Z,63.30
2022-10-10T18:49:14.532Z,63.30
2022-10-10T18:51:43.851Z,63.60
2022-10-10T18:54:17.273Z,63.60
2022-10-10T18:56:47.031Z,63.80
2022-10-10T18:59:23.660Z,64.00
2022-10-10T19:01:52.643Z,64.40
2022-10-10T19:04:21.351Z,64.80
2022-10-10T19:06:55.975Z,65.20
2022-10-10T19:09:25.426Z,65.60
2022-10-10T19:11:53.376Z,66.40
2022-10-10T19:14:21.183Z,66.50
2022-10-10T19:16:48.733Z,66.50
2022-10-10T19:19:19.347Z,66.80
2022-10-10T19:21:50.140Z,67.20
2022-10-10T19:24:20.958Z,67.10
2022-10-10T19:26:57.520Z,66.90
2022-10-10T19:29:26.860Z,66.90
2022-10-10T19:31:54.260Z,66.60
2022-10-10T19:34:22.202Z,66.60
2022-10-10T19:36:49.542Z,66.90
2022-10-10T19:39:16.895Z,67.20
2022-10-10T19:41:44.228Z,67.00
2022-10-10T19:44:11.621Z,67.30
2022-10-10T19:46:38.979Z,67.40
2022-10-10T19:49:06.530Z,67.40
2022-10-10T19:51:34.024Z,67.60
2022-10-10T19:54:01.417Z,67.40
2022-10-10T19:56:28.788Z,66.90
2022-10-10T19:59:00.773Z,66.80
2022-10-10T20:01:30.893Z,66.80
2022-10-10T20:03:59.866Z,66.20
2022-10-10T20:06:28.378Z,66.50
2022-10-10T20:08:56.188Z,66.00
2022-10-10T20:11:23.822Z,65.50
2022-10-10T20:13:55.668Z,65.40
2022-10-10T20:16:26.650Z,65.30
2022-10-10T20:18:56.292Z,65.10
2022-10-10T20:21:33.489Z,65.00
2022-10-10T20:24:09.859Z,65.10
2022-10-10T20:26:37.505Z,64.70
2022-10-10T20:29:07.082Z,64.50
2022-10-10T20:31:38.605Z,64.10
2022-10-10T20:34:07.734Z,64.20
2022-10-10T20:36:37.279Z,63.40
2022-10-10T20:39:12.090Z,63.70
2022-10-10T20:41:41.649Z,63.90
2022-10-10T20:44:14.601Z,63.20
2022-10-10T20:46:45.474Z,63.70
2022-10-10T20:49:21.934Z,64.00
2022-10-10T20:51:51.819Z,64.00
2022-10-10T20:54:23.598Z,64.20
2022-10-10T20:56:51.594Z,65.10
2022-10-10T20:59:21.206Z,64.30
2022-10-10T21:01:49.383Z,64.00
2022-10-10T21:04:17.097Z,64.10
2022-10-10T21:06:44.473Z,64.40
2022-10-10T21:09:15.807Z,64.80
2022-10-10T21:11:45.603Z,65.10
2022-10-10T21:14:16.284Z,66.90
2022-10-10T21:16:43.742Z,66.80
2022-10-10T21:19:12.705Z,66.60
2022-10-10T21:21:40.565Z,67.50
2022-10-10T21:24:13.712Z,67.20
2022-10-10T21:26:45.446Z,68.20
2022-10-10T21:29:12.765Z,68.20
2022-10-10T21:31:41.408Z,68.80
2022-10-10T21:34:15.617Z,69.20
2022-10-10T21:36:42.993Z,70.80
2022-10-10T21:39:13.999Z,70.90
2022-10-10T21:41:41.716Z,71.30
2022-10-10T21:44:11.010Z,70.10
2022-10-10T21:46:38.312Z,71.00
2022-10-10T21:49:11.890Z,70.80
2022-10-10T21:51:45.437Z,70.40
2022-10-10T21:54:13.701Z,71.00
2022-10-10T21:56:41.537Z,70.30
2022-10-10T21:59:10.503Z,69.10
2022-10-10T22:01:38.001Z,69.40
2022-10-10T22:04:06.491Z,70.40
2022-10-10T22:06:34.647Z,68.80
2022-10-10T22:09:03.160Z,69.70
2022-10-10T22:11:32.870Z,70.50
2022-10-10T22:14:05.621Z,70.30
2022-10-10T22:16:34.506Z,70.60
2022-10-10T22:19:03.092Z,69.80
2022-10-10T22:21:34.706Z,68.30
2022-10-10T22:24:08.135Z,68.80
2022-10-10T22:26:36.601Z,69.90
2022-10-10T22:29:04.764Z,69.70
2022-10-10T22:31:32.157Z,69.20
2022-10-10T22:34:01.099Z,70.30
2022-10-10T22:36:28.447Z,69.70
2022-10-10T22:38:55.796Z,69.80
2022-10-10T22:41:23.286Z,68.90
2022-10-10T22:43:50.612Z,69.60
2022-10-10T22:46:17.976Z,70.00
2022-10-10T22:48:45.312Z,69.20
2022-10-10T22:51:17.865Z,70.30
2022-10-10T22:53:48.110Z,70.60
2022-10-10T22:56:20.097Z,71.10
2022-10-10T22:58:50.812Z,71.40
2022-10-10T23:01:26.209Z,71.30
2022-10-10T23:04:00.511Z,71.50
2022-10-10T23:06:28.034Z,71.50
2022-10-10T23:08:58.119Z,72.00
2022-10-10T23:11:26.416Z,72.00
2022-10-10T23:13:53.690Z,72.30
2022-10-10T23:16:20.960Z,72.70
2022-10-10T23:18:48.405Z,72.50
2022-10-10T23:21:15.948Z,73.30
2022-10-10T23:23:43.245Z,72.50
2022-10-10T23:26:13.489Z,72.00
2022-10-10T23:28:41.367Z,72.50
2022-10-10T23:31:10.157Z,72.50
2022-10-10T23:33:39.681Z,72.70
2022-10-10T23:36:14.000Z,72.70
2022-10-10T23:38:42.653Z,72.90
2022-10-10T23:41:11.785Z,73.50
2022-10-10T23:43:39.088Z,73.50
2022-10-10T23:46:07.222Z,73.50
2022-10-10T23:48:34.920Z,73.70
2022-10-10T23:51:02.514Z,74.20
2022-10-10T23:53:30.627Z,74.80
2022-10-10T23:55:57.912Z,74.30
2022-10-10T23:58:25.474Z,74.50
